sensor_id;sensor_type;location;lat;lon;timestamp;P1;durP1;ratioP1;P2;durP2;ratioP2
34767;SDS011;21755;43.608;1.236;2023-04-24T00:00:01;5.55;;;1.25;;
34767;SDS011;21755;43.608;1.236;2023-04-24T00:02:30;3.92;;;1.70;;
34767;SDS011;21755;43.608;1.236;2023-04-24T00:04:57;6.10;;;1.73;;
34767;SDS011;21755;43.608;1.236;2023-04-24T00:07:28;4.85;;;1.40;;
34767;SDS011;21755;43.608;1.236;2023-04-24T00:09:54;2.85;;;1.60;;
34767;SDS011;21755;43.608;1.236;2023-04-24T00:12:20;2.28;;;1.40;;
34767;SDS011;21755;43.608;1.236;2023-04-24T00:14:46;7.75;;;2.10;;
34767;SDS011;21755;43.608;1.236;2023-04-24T00:17:12;6.97;;;1.60;;
34767;SDS011;21755;43.608;1.236;2023-04-24T00:19:38;5.88;;;1.58;;
34767;SDS011;21755;43.608;1.236;2023-04-24T00:22:04;3.30;;;1.30;;
34767;SDS011;21755;43.608;1.236;2023-04-24T00:24:30;7.93;;;1.50;;
34767;SDS011;21755;43.608;1.236;2023-04-24T00:26:56;4.28;;;1.77;;
34767;SDS011;21755;43.608;1.236;2023-04-24T00:29:22;5.68;;;1.70;;
34767;SDS011;21755;43.608;1.236;2023-04-24T00:31:48;4.95;;;1.55;;
34767;SDS011;21755;43.608;1.236;2023-04-24T00:34:14;4.82;;;1.65;;
34767;SDS011;21755;43.608;1.236;2023-04-24T00:36:40;5.85;;;1.50;;
34767;SDS011;21755;43.608;1.236;2023-04-24T00:39:05;2.53;;;1.27;;
34767;SDS011;21755;43.608;1.236;2023-04-24T00:41:33;4.68;;;1.30;;
34767;SDS011;21755;43.608;1.236;2023-04-24T00:44:00;6.47;;;1.73;;
34767;SDS011;21755;43.608;1.236;2023-04-24T00:46:26;4.03;;;1.38;;
34767;SDS011;21755;43.608;1.236;2023-04-24T00:48:51;5.78;;;1.70;;
34767;SDS011;21755;43.608;1.236;2023-04-24T00:51:18;6.43;;;1.80;;
34767;SDS011;21755;43.608;1.236;2023-04-24T00:53:44;3.47;;;1.50;;
34767;SDS011;21755;43.608;1.236;2023-04-24T00:56:11;4.68;;;1.48;;
34767;SDS011;21755;43.608;1.236;2023-04-24T00:58:38;3.17;;;1.58;;
34767;SDS011;21755;43.608;1.236;2023-04-24T01:01:04;6.90;;;1.77;;
34767;SDS011;21755;43.608;1.236;2023-04-24T01:03:32;5.63;;;1.83;;
34767;SDS011;21755;43.608;1.236;2023-04-24T01:06:01;7.63;;;1.67;;
34767;SDS011;21755;43.608;1.236;2023-04-24T01:08:28;7.43;;;1.50;;
34767;SDS011;21755;43.608;1.236;2023-04-24T01:10:55;5.20;;;1.70;;
34767;SDS011;21755;43.608;1.236;2023-04-24T01:13:29;7.63;;;2.00;;
34767;SDS011;21755;43.608;1.236;2023-04-24T01:15:55;6.28;;;1.75;;
34767;SDS011;21755;43.608;1.236;2023-04-24T01:18:21;6.68;;;1.70;;
34767;SDS011;21755;43.608;1.236;2023-04-24T01:20:47;8.63;;;1.60;;
34767;SDS011;21755;43.608;1.236;2023-04-24T01:23:19;5.53;;;1.85;;
34767;SDS011;21755;43.608;1.236;2023-04-24T01:25:45;6.88;;;1.73;;
34767;SDS011;21755;43.608;1.236;2023-04-24T01:28:11;6.00;;;1.75;;
34767;SDS011;21755;43.608;1.236;2023-04-24T01:30:39;11.75;;;2.17;;
34767;SDS011;21755;43.608;1.236;2023-04-24T01:33:04;5.63;;;1.90;;
34767;SDS011;21755;43.608;1.236;2023-04-24T01:35:31;7.43;;;1.92;;
34767;SDS011;21755;43.608;1.236;2023-04-24T01:37:57;5.88;;;1.90;;
34767;SDS011;21755;43.608;1.236;2023-04-24T01:40:22;4.28;;;1.90;;
34767;SDS011;21755;43.608;1.236;2023-04-24T01:42:48;10.48;;;2.13;;
34767;SDS011;21755;43.608;1.236;2023-04-24T01:45:15;9.90;;;1.98;;
34767;SDS011;21755;43.608;1.236;2023-04-24T01:47:41;14.63;;;2.38;;
34767;SDS011;21755;43.608;1.236;2023-04-24T01:50:07;13.82;;;1.88;;
34767;SDS011;21755;43.608;1.236;2023-04-24T01:52:33;16.58;;;2.67;;
34767;SDS011;21755;43.608;1.236;2023-04-24T01:55:01;9.80;;;2.22;;
34767;SDS011;21755;43.608;1.236;2023-04-24T01:57:30;10.38;;;1.95;;
34767;SDS011;21755;43.608;1.236;2023-04-24T01:59:57;9.02;;;2.20;;
34767;SDS011;21755;43.608;1.236;2023-04-24T02:02:23;8.48;;;2.10;;
34767;SDS011;21755;43.608;1.236;2023-04-24T02:04:52;11.00;;;1.73;;
34767;SDS011;21755;43.608;1.236;2023-04-24T02:07:19;5.25;;;1.70;;
34767;SDS011;21755;43.608;1.236;2023-04-24T02:09:45;15.30;;;2.10;;
34767;SDS011;21755;43.608;1.236;2023-04-24T02:12:10;5.97;;;1.92;;
34767;SDS011;21755;43.608;1.236;2023-04-24T02:14:36;8.18;;;1.80;;
34767;SDS011;21755;43.608;1.236;2023-04-24T02:17:02;8.15;;;1.90;;
34767;SDS011;21755;43.608;1.236;2023-04-24T02:19:28;4.70;;;1.90;;
34767;SDS011;21755;43.608;1.236;2023-04-24T02:21:54;7.30;;;2.25;;
34767;SDS011;21755;43.608;1.236;2023-04-24T02:24:20;8.52;;;2.40;;
34767;SDS011;21755;43.608;1.236;2023-04-24T02:26:46;7.90;;;2.42;;
34767;SDS011;21755;43.608;1.236;2023-04-24T02:29:11;7.38;;;2.17;;
34767;SDS011;21755;43.608;1.236;2023-04-24T02:31:37;6.97;;;2.17;;
34767;SDS011;21755;43.608;1.236;2023-04-24T02:34:03;4.68;;;2.30;;
34767;SDS011;21755;43.608;1.236;2023-04-24T02:36:29;8.85;;;2.10;;
34767;SDS011;21755;43.608;1.236;2023-04-24T02:38:55;7.85;;;2.15;;
34767;SDS011;21755;43.608;1.236;2023-04-24T02:41:21;7.70;;;2.13;;
34767;SDS011;21755;43.608;1.236;2023-04-24T02:43:47;9.25;;;2.47;;
34767;SDS011;21755;43.608;1.236;2023-04-24T02:46:13;9.63;;;2.97;;
34767;SDS011;21755;43.608;1.236;2023-04-24T02:48:39;4.80;;;2.10;;
34767;SDS011;21755;43.608;1.236;2023-04-24T02:51:04;8.27;;;2.53;;
34767;SDS011;21755;43.608;1.236;2023-04-24T02:53:31;6.03;;;2.30;;
34767;SDS011;21755;43.608;1.236;2023-04-24T02:55:57;8.13;;;2.25;;
34767;SDS011;21755;43.608;1.236;2023-04-24T02:58:23;4.63;;;2.40;;
34767;SDS011;21755;43.608;1.236;2023-04-24T03:00:53;8.63;;;2.30;;
34767;SDS011;21755;43.608;1.236;2023-04-24T03:03:20;3.83;;;1.83;;
34767;SDS011;21755;43.608;1.236;2023-04-24T03:05:47;6.30;;;2.25;;
34767;SDS011;21755;43.608;1.236;2023-04-24T03:08:12;4.75;;;1.88;;
34767;SDS011;21755;43.608;1.236;2023-04-24T03:10:39;7.72;;;2.30;;
34767;SDS011;21755;43.608;1.236;2023-04-24T03:13:05;9.95;;;2.30;;
34767;SDS011;21755;43.608;1.236;2023-04-24T03:15:31;9.02;;;2.25;;
34767;SDS011;21755;43.608;1.236;2023-04-24T03:17:57;8.30;;;2.38;;
34767;SDS011;21755;43.608;1.236;2023-04-24T03:20:23;5.03;;;2.05;;
34767;SDS011;21755;43.608;1.236;2023-04-24T03:22:49;5.15;;;1.88;;
34767;SDS011;21755;43.608;1.236;2023-04-24T03:25:15;8.05;;;2.33;;
34767;SDS011;21755;43.608;1.236;2023-04-24T03:27:41;11.27;;;2.30;;
34767;SDS011;21755;43.608;1.236;2023-04-24T03:30:07;10.52;;;2.28;;
34767;SDS011;21755;43.608;1.236;2023-04-24T03:32:33;10.75;;;2.05;;
34767;SDS011;21755;43.608;1.236;2023-04-24T03:34:59;8.13;;;2.05;;
34767;SDS011;21755;43.608;1.236;2023-04-24T03:37:25;9.52;;;1.92;;
34767;SDS011;21755;43.608;1.236;2023-04-24T03:39:51;10.20;;;1.95;;
34767;SDS011;21755;43.608;1.236;2023-04-24T03:42:17;6.78;;;1.98;;
34767;SDS011;21755;43.608;1.236;2023-04-24T03:44:43;10.80;;;2.53;;
34767;SDS011;21755;43.608;1.236;2023-04-24T03:47:09;5.63;;;2.15;;
34767;SDS011;21755;43.608;1.236;2023-04-24T03:49:35;10.25;;;2.17;;
34767;SDS011;21755;43.608;1.236;2023-04-24T03:52:01;8.57;;;1.90;;
34767;SDS011;21755;43.608;1.236;2023-04-24T03:54:27;7.55;;;2.03;;
34767;SDS011;21755;43.608;1.236;2023-04-24T03:56:52;6.80;;;2.00;;
34767;SDS011;21755;43.608;1.236;2023-04-24T03:59:18;10.35;;;2.10;;
34767;SDS011;21755;43.608;1.236;2023-04-24T04:01:44;6.47;;;1.58;;
34767;SDS011;21755;43.608;1.236;2023-04-24T04:04:11;8.05;;;2.05;;
34767;SDS011;21755;43.608;1.236;2023-04-24T04:06:36;7.35;;;2.20;;
34767;SDS011;21755;43.608;1.236;2023-04-24T04:09:02;9.70;;;2.13;;
34767;SDS011;21755;43.608;1.236;2023-04-24T04:11:28;14.50;;;2.72;;
34767;SDS011;21755;43.608;1.236;2023-04-24T04:13:55;10.60;;;2.08;;
34767;SDS011;21755;43.608;1.236;2023-04-24T04:16:22;11.88;;;2.40;;
34767;SDS011;21755;43.608;1.236;2023-04-24T04:18:48;8.68;;;1.77;;
34767;SDS011;21755;43.608;1.236;2023-04-24T04:21:14;7.20;;;2.20;;
34767;SDS011;21755;43.608;1.236;2023-04-24T04:23:40;9.68;;;2.30;;
34767;SDS011;21755;43.608;1.236;2023-04-24T04:26:06;11.70;;;2.50;;
34767;SDS011;21755;43.608;1.236;2023-04-24T04:28:33;11.65;;;2.63;;
34767;SDS011;21755;43.608;1.236;2023-04-24T04:30:59;7.25;;;2.10;;
34767;SDS011;21755;43.608;1.236;2023-04-24T04:33:26;10.52;;;2.22;;
34767;SDS011;21755;43.608;1.236;2023-04-24T04:35:52;12.57;;;2.20;;
34767;SDS011;21755;43.608;1.236;2023-04-24T04:38:18;17.00;;;2.70;;
34767;SDS011;21755;43.608;1.236;2023-04-24T04:40:44;11.23;;;2.00;;
34767;SDS011;21755;43.608;1.236;2023-04-24T04:43:11;13.13;;;2.30;;
34767;SDS011;21755;43.608;1.236;2023-04-24T04:45:38;11.65;;;2.47;;
34767;SDS011;21755;43.608;1.236;2023-04-24T04:48:06;12.35;;;1.98;;
34767;SDS011;21755;43.608;1.236;2023-04-24T04:50:34;7.20;;;1.80;;
34767;SDS011;21755;43.608;1.236;2023-04-24T04:53:00;16.90;;;2.80;;
34767;SDS011;21755;43.608;1.236;2023-04-24T04:55:26;8.75;;;2.40;;
34767;SDS011;21755;43.608;1.236;2023-04-24T04:57:52;10.05;;;2.13;;
34767;SDS011;21755;43.608;1.236;2023-04-24T05:00:18;9.95;;;1.90;;
34767;SDS011;21755;43.608;1.236;2023-04-24T05:02:44;16.25;;;2.25;;
34767;SDS011;21755;43.608;1.236;2023-04-24T05:05:10;8.00;;;2.08;;
34767;SDS011;21755;43.608;1.236;2023-04-24T05:07:36;13.23;;;2.08;;
34767;SDS011;21755;43.608;1.236;2023-04-24T05:10:02;10.20;;;2.40;;
34767;SDS011;21755;43.608;1.236;2023-04-24T05:12:28;11.40;;;2.38;;
34767;SDS011;21755;43.608;1.236;2023-04-24T05:14:54;11.05;;;2.30;;
34767;SDS011;21755;43.608;1.236;2023-04-24T05:17:20;11.95;;;2.78;;
34767;SDS011;21755;43.608;1.236;2023-04-24T05:19:46;9.80;;;2.20;;
34767;SDS011;21755;43.608;1.236;2023-04-24T05:22:13;13.68;;;2.28;;
34767;SDS011;21755;43.608;1.236;2023-04-24T05:24:39;16.55;;;2.80;;
34767;SDS011;21755;43.608;1.236;2023-04-24T05:27:04;12.15;;;2.42;;
34767;SDS011;21755;43.608;1.236;2023-04-24T05:29:31;11.80;;;2.65;;
34767;SDS011;21755;43.608;1.236;2023-04-24T05:31:58;5.95;;;2.15;;
34767;SDS011;21755;43.608;1.236;2023-04-24T05:34:24;11.65;;;2.88;;
34767;SDS011;21755;43.608;1.236;2023-04-24T05:36:50;15.02;;;2.63;;
34767;SDS011;21755;43.608;1.236;2023-04-24T05:39:16;9.25;;;2.47;;
34767;SDS011;21755;43.608;1.236;2023-04-24T05:41:42;8.07;;;2.50;;
34767;SDS011;21755;43.608;1.236;2023-04-24T05:44:09;14.98;;;2.85;;
34767;SDS011;21755;43.608;1.236;2023-04-24T05:46:35;7.00;;;2.28;;
34767;SDS011;21755;43.608;1.236;2023-04-24T05:49:01;10.27;;;2.60;;
34767;SDS011;21755;43.608;1.236;2023-04-24T05:51:27;14.90;;;2.83;;
34767;SDS011;21755;43.608;1.236;2023-04-24T05:53:53;9.07;;;1.95;;
34767;SDS011;21755;43.608;1.236;2023-04-24T05:56:19;7.60;;;2.45;;
34767;SDS011;21755;43.608;1.236;2023-04-24T05:58:45;16.00;;;2.75;;
34767;SDS011;21755;43.608;1.236;2023-04-24T06:01:12;14.23;;;2.67;;
34767;SDS011;21755;43.608;1.236;2023-04-24T06:03:40;11.27;;;2.67;;
34767;SDS011;21755;43.608;1.236;2023-04-24T06:06:07;17.38;;;2.83;;
34767;SDS011;21755;43.608;1.236;2023-04-24T06:08:33;12.82;;;3.45;;
34767;SDS011;21755;43.608;1.236;2023-04-24T06:10:59;9.68;;;2.53;;
34767;SDS011;21755;43.608;1.236;2023-04-24T06:13:25;13.20;;;3.00;;
34767;SDS011;21755;43.608;1.236;2023-04-24T06:15:52;10.98;;;2.92;;
34767;SDS011;21755;43.608;1.236;2023-04-24T06:18:18;18.15;;;2.83;;
34767;SDS011;21755;43.608;1.236;2023-04-24T06:20:44;8.18;;;2.33;;
34767;SDS011;21755;43.608;1.236;2023-04-24T06:23:11;15.02;;;2.63;;
34767;SDS011;21755;43.608;1.236;2023-04-24T06:25:37;16.13;;;2.72;;
34767;SDS011;21755;43.608;1.236;2023-04-24T06:28:03;7.57;;;2.45;;
34767;SDS011;21755;43.608;1.236;2023-04-24T06:30:29;14.00;;;2.97;;
34767;SDS011;21755;43.608;1.236;2023-04-24T06:32:56;12.75;;;3.05;;
34767;SDS011;21755;43.608;1.236;2023-04-24T06:35:22;15.75;;;2.95;;
34767;SDS011;21755;43.608;1.236;2023-04-24T06:37:48;11.55;;;3.35;;
34767;SDS011;21755;43.608;1.236;2023-04-24T06:40:14;12.32;;;2.83;;
34767;SDS011;21755;43.608;1.236;2023-04-24T06:42:40;15.27;;;2.88;;
34767;SDS011;21755;43.608;1.236;2023-04-24T06:45:06;12.27;;;2.80;;
34767;SDS011;21755;43.608;1.236;2023-04-24T06:47:32;14.10;;;2.63;;
34767;SDS011;21755;43.608;1.236;2023-04-24T06:49:58;18.52;;;2.92;;
34767;SDS011;21755;43.608;1.236;2023-04-24T06:52:24;11.40;;;3.03;;
34767;SDS011;21755;43.608;1.236;2023-04-24T06:54:50;12.90;;;2.85;;
34767;SDS011;21755;43.608;1.236;2023-04-24T06:57:16;10.88;;;2.70;;
34767;SDS011;21755;43.608;1.236;2023-04-24T06:59:42;15.40;;;2.70;;
34767;SDS011;21755;43.608;1.236;2023-04-24T07:02:08;11.55;;;2.83;;
34767;SDS011;21755;43.608;1.236;2023-04-24T07:04:39;12.52;;;2.85;;
34767;SDS011;21755;43.608;1.236;2023-04-24T07:07:07;13.00;;;3.05;;
34767;SDS011;21755;43.608;1.236;2023-04-24T07:09:34;10.90;;;3.00;;
34767;SDS011;21755;43.608;1.236;2023-04-24T07:12:03;11.60;;;2.70;;
34767;SDS011;21755;43.608;1.236;2023-04-24T07:14:29;4.47;;;1.90;;
34767;SDS011;21755;43.608;1.236;2023-04-24T07:16:55;4.25;;;1.60;;
34767;SDS011;21755;43.608;1.236;2023-04-24T07:19:22;7.50;;;1.90;;
34767;SDS011;21755;43.608;1.236;2023-04-24T07:21:47;3.83;;;1.42;;
34767;SDS011;21755;43.608;1.236;2023-04-24T07:24:13;6.05;;;1.30;;
34767;SDS011;21755;43.608;1.236;2023-04-24T07:26:39;6.15;;;1.10;;
34767;SDS011;21755;43.608;1.236;2023-04-24T07:29:05;2.42;;;1.15;;
34767;SDS011;21755;43.608;1.236;2023-04-24T07:31:32;3.97;;;1.05;;
34767;SDS011;21755;43.608;1.236;2023-04-24T07:33:58;4.05;;;1.25;;
34767;SDS011;21755;43.608;1.236;2023-04-24T07:36:24;7.07;;;1.42;;
34767;SDS011;21755;43.608;1.236;2023-04-24T07:38:51;6.13;;;1.17;;
34767;SDS011;21755;43.608;1.236;2023-04-24T07:41:17;13.07;;;1.75;;
34767;SDS011;21755;43.608;1.236;2023-04-24T07:43:43;5.68;;;1.30;;
34767;SDS011;21755;43.608;1.236;2023-04-24T07:46:09;12.40;;;2.72;;
34767;SDS011;21755;43.608;1.236;2023-04-24T07:48:36;5.43;;;1.38;;
34767;SDS011;21755;43.608;1.236;2023-04-24T07:51:02;10.05;;;1.83;;
34767;SDS011;21755;43.608;1.236;2023-04-24T07:53:28;9.32;;;1.75;;
34767;SDS011;21755;43.608;1.236;2023-04-24T07:55:55;12.15;;;3.30;;
34767;SDS011;21755;43.608;1.236;2023-04-24T07:58:21;9.98;;;3.60;;
34767;SDS011;21755;43.608;1.236;2023-04-24T08:00:47;12.18;;;4.10;;
34767;SDS011;21755;43.608;1.236;2023-04-24T08:03:13;15.70;;;4.22;;
34767;SDS011;21755;43.608;1.236;2023-04-24T08:05:39;8.30;;;2.28;;
34767;SDS011;21755;43.608;1.236;2023-04-24T08:08:08;8.35;;;2.13;;
34767;SDS011;21755;43.608;1.236;2023-04-24T08:10:33;5.85;;;1.70;;
34767;SDS011;21755;43.608;1.236;2023-04-24T08:12:59;7.70;;;1.55;;
34767;SDS011;21755;43.608;1.236;2023-04-24T08:15:26;10.15;;;1.50;;
34767;SDS011;21755;43.608;1.236;2023-04-24T08:17:52;7.65;;;1.23;;
34767;SDS011;21755;43.608;1.236;2023-04-24T08:20:18;3.50;;;1.08;;
34767;SDS011;21755;43.608;1.236;2023-04-24T08:22:44;8.02;;;1.33;;
34767;SDS011;21755;43.608;1.236;2023-04-24T08:25:12;5.43;;;1.10;;
34767;SDS011;21755;43.608;1.236;2023-04-24T08:27:38;7.53;;;1.23;;
34767;SDS011;21755;43.608;1.236;2023-04-24T08:30:04;5.57;;;1.02;;
34767;SDS011;21755;43.608;1.236;2023-04-24T08:32:30;3.35;;;0.80;;
34767;SDS011;21755;43.608;1.236;2023-04-24T08:34:59;4.72;;;1.17;;
34767;SDS011;21755;43.608;1.236;2023-04-24T08:37:26;5.78;;;0.80;;
34767;SDS011;21755;43.608;1.236;2023-04-24T08:39:54;4.95;;;1.00;;
34767;SDS011;21755;43.608;1.236;2023-04-24T08:42:21;3.42;;;0.88;;
34767;SDS011;21755;43.608;1.236;2023-04-24T08:44:48;5.45;;;0.93;;
34767;SDS011;21755;43.608;1.236;2023-04-24T08:47:15;2.45;;;1.10;;
34767;SDS011;21755;43.608;1.236;2023-04-24T08:49:41;9.13;;;1.20;;
34767;SDS011;21755;43.608;1.236;2023-04-24T08:52:08;6.05;;;1.08;;
34767;SDS011;21755;43.608;1.236;2023-04-24T08:54:37;3.97;;;1.20;;
34767;SDS011;21755;43.608;1.236;2023-04-24T08:57:04;3.90;;;0.90;;
34767;SDS011;21755;43.608;1.236;2023-04-24T08:59:32;2.92;;;0.98;;
34767;SDS011;21755;43.608;1.236;2023-04-24T09:02:00;13.02;;;1.58;;
34767;SDS011;21755;43.608;1.236;2023-04-24T09:04:29;8.95;;;1.65;;
34767;SDS011;21755;43.608;1.236;2023-04-24T09:06:56;2.90;;;0.77;;
34767;SDS011;21755;43.608;1.236;2023-04-24T09:09:23;5.47;;;1.38;;
34767;SDS011;21755;43.608;1.236;2023-04-24T09:11:51;4.63;;;0.88;;
34767;SDS011;21755;43.608;1.236;2023-04-24T09:14:20;5.55;;;1.45;;
34767;SDS011;21755;43.608;1.236;2023-04-24T09:16:48;8.15;;;1.33;;
34767;SDS011;21755;43.608;1.236;2023-04-24T09:19:14;4.25;;;0.90;;
34767;SDS011;21755;43.608;1.236;2023-04-24T09:21:40;2.40;;;0.80;;
34767;SDS011;21755;43.608;1.236;2023-04-24T09:24:14;5.22;;;1.02;;
34767;SDS011;21755;43.608;1.236;2023-04-24T09:26:47;4.50;;;1.00;;
34767;SDS011;21755;43.608;1.236;2023-04-24T09:29:17;3.00;;;1.15;;
34767;SDS011;21755;43.608;1.236;2023-04-24T09:31:44;8.82;;;1.20;;
34767;SDS011;21755;43.608;1.236;2023-04-24T09:34:10;5.72;;;1.00;;
34767;SDS011;21755;43.608;1.236;2023-04-24T09:36:38;8.70;;;1.25;;
34767;SDS011;21755;43.608;1.236;2023-04-24T09:39:06;3.72;;;0.90;;
34767;SDS011;21755;43.608;1.236;2023-04-24T09:41:38;5.47;;;1.17;;
34767;SDS011;21755;43.608;1.236;2023-04-24T09:44:19;2.50;;;0.85;;
34767;SDS011;21755;43.608;1.236;2023-04-24T09:46:50;3.90;;;1.08;;
34767;SDS011;21755;43.608;1.236;2023-04-24T09:49:24;3.35;;;0.90;;
34767;SDS011;21755;43.608;1.236;2023-04-24T09:51:52;2.13;;;0.63;;
34767;SDS011;21755;43.608;1.236;2023-04-24T09:54:30;4.80;;;0.90;;
34767;SDS011;21755;43.608;1.236;2023-04-24T09:56:56;4.47;;;0.80;;
34767;SDS011;21755;43.608;1.236;2023-04-24T09:59:22;8.70;;;1.55;;
34767;SDS011;21755;43.608;1.236;2023-04-24T10:01:48;6.22;;;0.73;;
34767;SDS011;21755;43.608;1.236;2023-04-24T10:04:16;6.50;;;1.13;;
34767;SDS011;21755;43.608;1.236;2023-04-24T10:06:50;4.60;;;1.30;;
34767;SDS011;21755;43.608;1.236;2023-04-24T10:09:18;8.80;;;1.05;;
34767;SDS011;21755;43.608;1.236;2023-04-24T10:11:46;2.90;;;0.77;;
34767;SDS011;21755;43.608;1.236;2023-04-24T10:14:15;4.43;;;1.15;;
34767;SDS011;21755;43.608;1.236;2023-04-24T10:16:42;2.03;;;0.90;;
34767;SDS011;21755;43.608;1.236;2023-04-24T10:19:09;4.65;;;1.48;;
34767;SDS011;21755;43.608;1.236;2023-04-24T10:21:36;6.07;;;1.27;;
34767;SDS011;21755;43.608;1.236;2023-04-24T10:24:07;5.80;;;1.17;;
34767;SDS011;21755;43.608;1.236;2023-04-24T10:26:34;5.47;;;1.00;;
34767;SDS011;21755;43.608;1.236;2023-04-24T10:29:00;4.80;;;0.60;;
34767;SDS011;21755;43.608;1.236;2023-04-24T10:31:27;6.57;;;1.10;;
34767;SDS011;21755;43.608;1.236;2023-04-24T10:33:56;3.67;;;0.80;;
34767;SDS011;21755;43.608;1.236;2023-04-24T10:36:23;2.25;;;0.90;;
34767;SDS011;21755;43.608;1.236;2023-04-24T10:38:52;4.78;;;0.93;;
34767;SDS011;21755;43.608;1.236;2023-04-24T10:41:20;1.42;;;0.80;;
34767;SDS011;21755;43.608;1.236;2023-04-24T10:43:48;5.45;;;1.35;;
34767;SDS011;21755;43.608;1.236;2023-04-24T10:46:30;8.00;;;1.42;;
34767;SDS011;21755;43.608;1.236;2023-04-24T10:48:56;4.00;;;0.80;;
34767;SDS011;21755;43.608;1.236;2023-04-24T10:51:23;3.90;;;1.30;;
34767;SDS011;21755;43.608;1.236;2023-04-24T10:59:51;3.28;;;1.08;;
34767;SDS011;21755;43.608;1.236;2023-04-24T11:02:38;5.53;;;1.00;;
34767;SDS011;21755;43.608;1.236;2023-04-24T11:05:08;5.57;;;1.23;;
34767;SDS011;21755;43.608;1.236;2023-04-24T11:10:47;5.35;;;1.00;;
34767;SDS011;21755;43.608;1.236;2023-04-24T11:13:22;3.60;;;1.10;;
34767;SDS011;21755;43.608;1.236;2023-04-24T11:19:05;6.72;;;1.48;;
34767;SDS011;21755;43.608;1.236;2023-04-24T11:21:39;3.75;;;0.90;;
34767;SDS011;21755;43.608;1.236;2023-04-24T11:26:54;4.45;;;1.02;;
34767;SDS011;21755;43.608;1.236;2023-04-24T11:29:42;6.05;;;1.08;;
34767;SDS011;21755;43.608;1.236;2023-04-24T11:32:36;2.35;;;1.02;;
34767;SDS011;21755;43.608;1.236;2023-04-24T11:37:49;9.68;;;1.80;;
34767;SDS011;21755;43.608;1.236;2023-04-24T11:40:17;6.10;;;1.33;;
34767;SDS011;21755;43.608;1.236;2023-04-24T11:42:46;5.53;;;1.05;;
34767;SDS011;21755;43.608;1.236;2023-04-24T11:45:13;3.53;;;0.70;;
34767;SDS011;21755;43.608;1.236;2023-04-24T11:47:41;4.32;;;0.85;;
34767;SDS011;21755;43.608;1.236;2023-04-24T11:50:12;3.92;;;0.80;;
34767;SDS011;21755;43.608;1.236;2023-04-24T11:52:46;3.95;;;0.90;;
34767;SDS011;21755;43.608;1.236;2023-04-24T11:57:39;4.90;;;1.30;;
34767;SDS011;21755;43.608;1.236;2023-04-24T12:00:14;4.43;;;1.08;;
34767;SDS011;21755;43.608;1.236;2023-04-24T12:02:41;3.00;;;1.05;;
34767;SDS011;21755;43.608;1.236;2023-04-24T12:05:07;4.85;;;1.10;;
34767;SDS011;21755;43.608;1.236;2023-04-24T12:07:42;4.68;;;1.08;;
34767;SDS011;21755;43.608;1.236;2023-04-24T12:10:08;3.50;;;0.93;;
34767;SDS011;21755;43.608;1.236;2023-04-24T12:12:34;3.47;;;1.17;;
34767;SDS011;21755;43.608;1.236;2023-04-24T12:15:00;3.50;;;1.10;;
34767;SDS011;21755;43.608;1.236;2023-04-24T12:17:32;3.20;;;1.08;;
34767;SDS011;21755;43.608;1.236;2023-04-24T12:20:00;4.22;;;0.98;;
34767;SDS011;21755;43.608;1.236;2023-04-24T12:22:27;5.93;;;1.02;;
34767;SDS011;21755;43.608;1.236;2023-04-24T12:25:09;6.78;;;1.73;;
34767;SDS011;21755;43.608;1.236;2023-04-24T12:27:36;7.30;;;1.33;;
34767;SDS011;21755;43.608;1.236;2023-04-24T12:30:03;6.57;;;1.00;;
34767;SDS011;21755;43.608;1.236;2023-04-24T12:32:30;3.58;;;1.20;;
34767;SDS011;21755;43.608;1.236;2023-04-24T12:34:56;4.32;;;1.05;;
34767;SDS011;21755;43.608;1.236;2023-04-24T12:37:23;3.40;;;1.10;;
34767;SDS011;21755;43.608;1.236;2023-04-24T12:42:26;3.75;;;0.80;;
34767;SDS011;21755;43.608;1.236;2023-04-24T12:44:56;8.43;;;1.60;;
34767;SDS011;21755;43.608;1.236;2023-04-24T12:47:24;7.97;;;1.30;;
34767;SDS011;21755;43.608;1.236;2023-04-24T12:49:52;4.63;;;1.00;;
34767;SDS011;21755;43.608;1.236;2023-04-24T12:52:20;5.38;;;1.20;;
34767;SDS011;21755;43.608;1.236;2023-04-24T12:54:47;9.75;;;1.17;;
34767;SDS011;21755;43.608;1.236;2023-04-24T12:57:13;3.42;;;1.13;;
34767;SDS011;21755;43.608;1.236;2023-04-24T12:59:39;6.20;;;1.27;;
34767;SDS011;21755;43.608;1.236;2023-04-24T13:02:06;3.80;;;1.05;;
34767;SDS011;21755;43.608;1.236;2023-04-24T13:04:32;7.80;;;1.13;;
34767;SDS011;21755;43.608;1.236;2023-04-24T13:06:58;6.38;;;1.10;;
34767;SDS011;21755;43.608;1.236;2023-04-24T13:09:23;6.30;;;1.25;;
34767;SDS011;21755;43.608;1.236;2023-04-24T13:11:49;4.15;;;1.15;;
34767;SDS011;21755;43.608;1.236;2023-04-24T13:14:16;4.32;;;1.40;;
34767;SDS011;21755;43.608;1.236;2023-04-24T13:16:41;4.75;;;1.25;;
34767;SDS011;21755;43.608;1.236;2023-04-24T13:19:07;6.70;;;1.27;;
34767;SDS011;21755;43.608;1.236;2023-04-24T13:21:33;5.80;;;1.10;;
34767;SDS011;21755;43.608;1.236;2023-04-24T13:23:59;8.20;;;1.20;;
34767;SDS011;21755;43.608;1.236;2023-04-24T13:26:25;3.90;;;1.30;;
34767;SDS011;21755;43.608;1.236;2023-04-24T13:28:51;7.50;;;1.20;;
34767;SDS011;21755;43.608;1.236;2023-04-24T13:31:17;4.32;;;1.10;;
34767;SDS011;21755;43.608;1.236;2023-04-24T13:33:43;2.22;;;0.75;;
34767;SDS011;21755;43.608;1.236;2023-04-24T13:36:08;3.17;;;1.08;;
34767;SDS011;21755;43.608;1.236;2023-04-24T13:38:34;5.65;;;1.15;;
34767;SDS011;21755;43.608;1.236;2023-04-24T13:41:00;7.47;;;1.80;;
34767;SDS011;21755;43.608;1.236;2023-04-24T13:43:26;6.25;;;1.15;;
34767;SDS011;21755;43.608;1.236;2023-04-24T13:45:52;6.25;;;1.27;;
34767;SDS011;21755;43.608;1.236;2023-04-24T13:48:18;2.90;;;1.20;;
34767;SDS011;21755;43.608;1.236;2023-04-24T13:50:44;2.28;;;0.80;;
34767;SDS011;21755;43.608;1.236;2023-04-24T13:53:13;9.68;;;1.42;;
34767;SDS011;21755;43.608;1.236;2023-04-24T13:55:39;3.00;;;1.23;;
34767;SDS011;21755;43.608;1.236;2023-04-24T13:58:05;6.60;;;1.10;;
34767;SDS011;21755;43.608;1.236;2023-04-24T14:00:31;2.35;;;0.98;;
34767;SDS011;21755;43.608;1.236;2023-04-24T14:02:57;4.55;;;1.23;;
34767;SDS011;21755;43.608;1.236;2023-04-24T14:05:23;7.00;;;1.88;;
34767;SDS011;21755;43.608;1.236;2023-04-24T14:07:50;3.65;;;0.70;;
34767;SDS011;21755;43.608;1.236;2023-04-24T14:10:16;6.25;;;0.80;;
34767;SDS011;21755;43.608;1.236;2023-04-24T14:12:42;3.53;;;1.40;;
34767;SDS011;21755;43.608;1.236;2023-04-24T14:15:08;4.30;;;1.05;;
34767;SDS011;21755;43.608;1.236;2023-04-24T14:17:35;3.83;;;1.17;;
34767;SDS011;21755;43.608;1.236;2023-04-24T14:20:01;3.47;;;1.00;;
34767;SDS011;21755;43.608;1.236;2023-04-24T14:22:28;6.10;;;1.20;;
34767;SDS011;21755;43.608;1.236;2023-04-24T14:24:54;4.43;;;2.30;;
34767;SDS011;21755;43.608;1.236;2023-04-24T14:27:20;4.00;;;1.50;;
34767;SDS011;21755;43.608;1.236;2023-04-24T14:29:46;7.32;;;1.25;;
34767;SDS011;21755;43.608;1.236;2023-04-24T14:32:12;4.50;;;1.20;;
34767;SDS011;21755;43.608;1.236;2023-04-24T14:34:40;4.78;;;1.25;;
34767;SDS011;21755;43.608;1.236;2023-04-24T14:37:06;3.58;;;1.00;;
34767;SDS011;21755;43.608;1.236;2023-04-24T14:39:32;3.60;;;1.05;;
34767;SDS011;21755;43.608;1.236;2023-04-24T14:41:58;4.65;;;1.20;;
34767;SDS011;21755;43.608;1.236;2023-04-24T14:44:25;5.55;;;0.90;;
34767;SDS011;21755;43.608;1.236;2023-04-24T14:46:51;3.63;;;1.23;;
34767;SDS011;21755;43.608;1.236;2023-04-24T14:49:17;3.78;;;1.10;;
34767;SDS011;21755;43.608;1.236;2023-04-24T14:51:42;2.17;;;1.05;;
34767;SDS011;21755;43.608;1.236;2023-04-24T14:54:08;5.25;;;1.50;;
34767;SDS011;21755;43.608;1.236;2023-04-24T14:56:34;1.60;;;0.77;;
34767;SDS011;21755;43.608;1.236;2023-04-24T14:59:00;7.30;;;1.13;;
34767;SDS011;21755;43.608;1.236;2023-04-24T15:01:26;4.45;;;1.38;;
34767;SDS011;21755;43.608;1.236;2023-04-24T15:03:52;3.38;;;1.30;;
34767;SDS011;21755;43.608;1.236;2023-04-24T15:06:18;4.78;;;1.40;;